Clifford, Michigan
Current Conditions -  °F | °C
As of 12:35 AM on Thursday 18 Dec 2014 (Local Time) from KCFS Reporting Station
Haze Haze  
Wind Chill: 20°   Ceiling: 1600
Heat Index: 29°   Visibility: 5mi
Dew Point: 27°   Wind: 10mph
Humidity: 91%   Direction: 260°W
Pressure: 30.11"   Gusts: NA
Location:  43.31°N, 83.18°W
Report Text: KCFS 180535Z AUTO 26009KT 5SM BR SCT010 OVC016 M02/M03 A3011 RMK AO2 T10171030
Loading
Personal Weather Stations






























Interactive Weather Map New forecast layout! Learn more

10-Day Weather Forecast

Advertisements
Track Severe Weather on mobile